Time;durP1;ratioP1;P1;durP2;ratioP2;P2;SDS_P1;SDS_P2;PMS_P1;PMS_P2;Temp;Humidity;BMP_temperature;BMP_pressure;BME280_temperature;BME280_humidity;BME280_pressure;Samples;Min_cycle;Max_cycle;Signal;HPM_P1;HPM_P2
2021/06/14 00:00:37;;;;;;;27.43;22.27;;;;;;;22.40;100.00;124724.84;2105421;28;20576;-81
2021/06/14 00:01:38;;;;;;;24.95;22.45;;;;;;;;;;2105194;28;20355;-80
2021/06/14 00:02:40;;;;;;;24.67;22.23;;;;;;;;;;2105241;28;20711;-80
2021/06/14 00:03:41;;;;;;;24.30;22.10;;;;;;;10.54;nan;99498.81;2104585;28;20241;-80
2021/06/14 00:04:42;;;;;;;24.00;21.55;;;;;;;;;;2096836;28;20276;-80
2021/06/14 00:05:43;;;;;;;24.67;22.35;;;;;;;;;;2105322;28;20587;-80
2021/06/14 00:06:45;;;;;;;25.25;22.58;;;;;;;;;;2105246;28;20228;-80
2021/06/14 00:07:45;;;;;;;27.25;23.45;;;;;;;;;;2113102;28;20217;-80
2021/06/14 00:08:47;;;;;;;24.47;22.23;;;;;;;22.40;100.00;91335.66;2122250;27;20256;-80
2021/06/14 00:09:48;;;;;;;25.02;22.45;;;;;;;22.40;100.00;91335.66;2104887;28;20267;-80
2021/06/14 00:10:52;;;;;;;25.43;22.80;;;;;;;22.40;100.00;91335.66;2113403;28;20779;-80
2021/06/14 00:11:54;;;;;;;25.17;22.80;;;;;;;;;;2112329;28;20224;-80
2021/06/14 00:12:56;;;;;;;25.25;22.33;;;;;;;;;;2105789;28;20217;-80
2021/06/14 00:13:56;;;;;;;24.98;22.45;;;;;;;;;;2105081;28;20593;-80
2021/06/14 00:14:58;;;;;;;28.17;22.73;;;;;;;;;;2105053;28;20257;-80
2021/06/14 00:16:00;;;;;;;23.98;21.60;;;;;;;10.35;nan;99580.66;2105177;28;20675;-80
2021/06/14 00:17:00;;;;;;;24.55;22.15;;;;;;;;;;2104928;28;20552;-80
2021/06/14 00:18:02;;;;;;;24.50;21.83;;;;;;;;;;2105208;28;20258;-80
2021/06/14 00:19:03;;;;;;;23.60;21.30;;;;;;;;;;2104281;28;20227;-81
2021/06/14 00:20:06;;;;;;;26.83;21.23;;;;;;;;;;2105040;28;20256;-80
2021/06/14 00:21:08;;;;;;;23.58;21.05;;;;;;;;;;2096679;28;20221;-81
2021/06/14 00:22:10;;;;;;;22.98;20.65;;;;;;;10.25;nan;99564.72;2096349;28;20770;-80
2021/06/14 00:23:11;;;;;;;24.73;21.45;;;;;;;;;;2096551;28;20222;-80
2021/06/14 00:24:13;;;;;;;23.97;21.37;;;;;;;22.40;100.00;91335.66;2088238;28;20284;-81
2021/06/14 00:25:18;;;;;;;24.83;21.17;;;;;;;10.16;nan;99519.19;2103660;28;20706;-80
2021/06/14 00:26:20;;;;;;;22.05;19.83;;;;;;;10.22;nan;99544.75;2105056;28;20225;-81
2021/06/14 00:27:22;;;;;;;21.95;19.60;;;;;;;;;;2105644;28;20225;-80
2021/06/14 00:28:24;;;;;;;21.52;19.65;;;;;;;-144.19;100.00;91335.28;2105423;28;20248;-80
2021/06/14 00:29:25;;;;;;;23.88;20.30;;;;;;;22.40;100.00;57728.81;2111603;28;20330;-80
2021/06/14 00:30:27;;;;;;;24.90;20.67;;;;;;;;;;2104961;28;20237;-80
2021/06/14 00:31:28;;;;;;;23.20;19.80;;;;;;;;;;2096632;28;20238;-80
2021/06/14 00:32:29;;;;;;;29.00;19.63;;;;;;;;;;2104938;28;20240;-80
2021/06/14 00:33:30;;;;;;;27.45;20.55;;;;;;;;;;2101687;28;20229;-80
2021/06/14 00:34:32;;;;;;;21.43;19.20;;;;;;;10.16;nan;99552.00;2096404;28;20232;-80
2021/06/14 00:35:33;;;;;;;23.35;20.02;;;;;;;;;;2104883;28;20213;-80
2021/06/14 00:36:34;;;;;;;21.58;19.38;;;;;;;;;;2105760;28;20252;-80
2021/06/14 00:37:35;;;;;;;21.08;19.08;;;;;;;;;;2104861;28;20221;-80
2021/06/14 00:38:38;;;;;;;26.63;20.50;;;;;;;;;;2105167;28;20256;-80
2021/06/14 00:39:39;;;;;;;21.63;19.60;;;;;;;;;;2104061;28;20274;-80
2021/06/14 00:40:41;;;;;;;23.10;20.00;;;;;;;;;;2104761;28;20229;-80
2021/06/14 00:41:42;;;;;;;22.08;19.35;;;;;;;;;;2104860;28;20226;-80
2021/06/14 00:42:45;;;;;;;23.47;20.23;;;;;;;;;;2104542;28;20711;-80
2021/06/14 00:43:46;;;;;;;23.27;20.33;;;;;;;;;;2104910;28;20217;-81
2021/06/14 00:44:48;;;;;;;23.48;20.98;;;;;;;22.40;100.00;91335.66;2104436;28;20274;-81
2021/06/14 00:45:51;;;;;;;23.30;20.95;;;;;;;22.40;100.00;164658.44;2104870;28;20221;-81
2021/06/14 00:46:53;;;;;;;23.27;20.98;;;;;;;;;;2096714;28;20271;-81
2021/06/14 00:47:53;;;;;;;22.63;20.38;;;;;;;;;;2104451;28;20225;-81
2021/06/14 00:48:55;;;;;;;22.70;20.23;;;;;;;9.97;nan;99484.44;2104631;28;20251;-80
2021/06/14 00:49:56;;;;;;;22.35;19.98;;;;;;;;;;2100583;28;20274;-81
2021/06/14 00:50:58;;;;;;;22.10;19.97;;;;;;;;;;2092339;28;20252;-81
2021/06/14 00:51:59;;;;;;;21.92;19.85;;;;;;;;;;2096682;28;20249;-81
2021/06/14 00:53:01;;;;;;;22.27;19.90;;;;;;;;;;2096503;28;20225;-81
2021/06/14 00:54:01;;;;;;;21.75;19.60;;;;;;;;;;2104684;28;20583;-81
2021/06/14 00:55:07;;;;;;;29.10;20.98;;;;;;;;;;2104720;28;20241;-81
2021/06/14 00:56:09;;;;;;;20.90;18.77;;;;;;;22.40;100.00;164658.44;2104457;28;20237;-81
2021/06/14 00:57:12;;;;;;;21.85;19.60;;;;;;;;;;2096638;28;20284;-81
2021/06/14 00:58:15;;;;;;;21.42;19.40;;;;;;;;;;2096377;28;20218;-81
2021/06/14 00:59:17;;;;;;;20.92;18.92;;;;;;;;;;2104816;28;20240;-81
2021/06/14 01:00:20;;;;;;;23.27;19.52;;;;;;;;;;2104781;28;20311;-81
2021/06/14 01:01:28;;;;;;;22.02;19.23;;;;;;;;;;2096866;28;20253;-81
2021/06/14 01:02:33;;;;;;;27.17;20.08;;;;;;;;;;2104792;28;20214;-81
2021/06/14 01:03:36;;;;;;;21.73;19.45;;;;;;;22.40;100.00;57721.22;2104405;28;20608;-81
2021/06/14 01:04:37;;;;;;;22.02;19.67;;;;;;;;;;2104753;28;20237;-81
2021/06/14 01:05:41;;;;;;;24.63;20.00;;;;;;;;;;2102359;28;20229;-81
2021/06/14 01:06:42;;;;;;;22.10;18.92;;;;;;;;;;2104774;28;23136;-81
2021/06/14 01:07:44;;;;;;;21.30;19.00;;;;;;;;;;2104632;28;20322;-82
2021/06/14 01:08:47;;;;;;;22.33;20.10;;;;;;;22.40;100.00;91335.66;2104499;28;20227;-82
2021/06/14 01:09:49;;;;;;;23.02;20.63;;;;;;;22.40;100.00;57721.22;2104614;28;20227;-82
2021/06/14 01:10:50;;;;;;;25.90;20.30;;;;;;;;;;2104912;28;20217;-82
2021/06/14 01:11:54;;;;;;;22.55;20.42;;;;;;;;;;2104454;28;20753;-82
2021/06/14 01:13:06;;;;;;;22.95;19.50;;;;;;;22.40;100.00;91335.66;2102144;28;20622;-81
2021/06/14 01:14:14;;;;;;;22.90;20.83;;;;;;;22.40;100.00;57721.22;2093141;28;20233;-80
2021/06/14 01:15:16;;;;;;;22.67;19.75;;;;;;;22.40;100.00;91335.66;2096927;28;20705;-82
2021/06/14 01:16:27;;;;;;;24.95;19.95;;;;;;;;;;2096571;28;20314;-82
2021/06/14 01:17:34;;;;;;;21.95;19.10;;;;;;;;;;2098010;28;20739;-82
2021/06/14 01:18:41;;;;;;;24.42;20.15;;;;;;;-144.10;100.00;91335.28;2096539;28;20256;-82
2021/06/14 01:19:58;;;;;;;21.60;19.40;;;;;;;;;;2104355;28;20225;-82
2021/06/14 01:21:04;;;;;;;23.65;19.27;;;;;;;;;;2103203;28;20245;-82
2021/06/14 01:22:14;;;;;;;22.23;19.67;;;;;;;;;;2104641;28;20218;-81
2021/06/14 01:23:26;;;;;;;24.10;19.98;;;;;;;22.40;100.00;91335.66;2103000;28;20295;-82
2021/06/14 01:24:37;;;;;;;21.55;19.25;;;;;;;;;;2098848;28;20229;-81
2021/06/14 01:25:46;;;;;;;22.02;19.60;;;;;;;-144.10;100.00;91335.28;2095619;28;20218;-80
2021/06/14 01:26:56;;;;;;;21.77;19.65;;;;;;;;;;2089573;28;20680;-81
2021/06/14 01:28:00;;;;;;;22.17;19.95;;;;;;;-144.19;100.00;91335.28;2096853;28;20696;-82
2021/06/14 01:29:02;;;;;;;23.13;20.25;;;;;;;;;;2105408;28;20269;-82
2021/06/14 01:30:06;;;;;;;22.25;20.00;;;;;;;22.40;100.00;91335.66;2104436;28;20221;-82
2021/06/14 01:31:08;;;;;;;21.67;19.30;;;;;;;;;;2104175;28;20304;-81
2021/06/14 01:32:10;;;;;;;20.90;18.93;;;;;;;22.40;100.00;57714.63;2104803;28;20232;-81
2021/06/14 01:33:14;;;;;;;21.15;18.92;;;;;;;22.40;100.00;91335.66;2097632;28;20471;-82
2021/06/14 01:34:16;;;;;;;29.52;19.67;;;;;;;;;;2088489;28;20234;-82
2021/06/14 01:35:21;;;;;;;24.80;19.58;;;;;;;22.40;100.00;57715.41;2088343;28;20226;-82
2021/06/14 01:36:25;;;;;;;22.05;19.77;;;;;;;22.40;100.00;91335.66;2104501;28;20225;-82
2021/06/14 01:37:27;;;;;;;21.42;19.52;;;;;;;22.40;100.00;57715.41;2094614;28;20238;-82
2021/06/14 01:38:31;;;;;;;21.33;19.15;;;;;;;9.76;nan;99574.44;2096213;28;20229;-82
2021/06/14 01:39:37;;;;;;;20.70;18.65;;;;;;;22.40;100.00;124731.38;2102572;28;20229;-82
2021/06/14 01:40:41;;;;;;;20.30;18.50;;;;;;;;;;2101934;28;20655;-82
2021/06/14 01:41:45;;;;;;;21.50;19.38;;;;;;;;;;2104585;28;20225;-82
2021/06/14 01:42:52;;;;;;;20.90;18.75;;;;;;;22.40;100.00;91335.66;2099766;28;20225;-81
2021/06/14 01:43:55;;;;;;;21.10;18.92;;;;;;;22.40;100.00;57715.41;2102050;28;20579;-81
2021/06/14 01:45:00;;;;;;;26.23;19.35;;;;;;;;;;2104394;28;20316;-82
2021/06/14 01:46:02;;;;;;;25.80;19.27;;;;;;;;;;2104359;28;20228;-82
2021/06/14 01:47:07;;;;;;;20.80;18.92;;;;;;;9.72;nan;99540.63;2104423;28;20217;-82
2021/06/14 01:48:09;;;;;;;24.10;18.90;;;;;;;;;;2104356;28;20217;-81
2021/06/14 01:49:13;;;;;;;20.98;19.02;;;;;;;22.40;100.00;57745.03;2104422;28;27436;-82
2021/06/14 01:50:18;;;;;;;24.02;19.00;;;;;;;;;;2096868;28;20222;-82
2021/06/14 01:51:22;;;;;;;20.90;18.83;;;;;;;9.82;nan;99605.31;2096005;28;20241;-82
2021/06/14 01:52:23;;;;;;;24.10;18.55;;;;;;;;;;2104235;28;20274;-80
2021/06/14 01:53:28;;;;;;;20.75;18.65;;;;;;;;;;2104274;28;20240;-80
2021/06/14 01:54:30;;;;;;;19.95;17.88;;;;;;;;;;2104312;28;20225;-81
2021/06/14 01:55:39;;;;;;;20.48;18.45;;;;;;;;;;2104068;28;20217;-81
2021/06/14 01:56:42;;;;;;;21.33;19.05;;;;;;;;;;2104443;28;20262;-81
2021/06/14 01:57:48;;;;;;;21.42;19.30;;;;;;;9.86;nan;99649.00;2092570;28;20748;-81
2021/06/14 01:58:56;;;;;;;20.88;18.83;;;;;;;;;;2107405;28;20286;-81
2021/06/14 02:00:05;;;;;;;20.35;18.35;;;;;;;;;;2111877;28;20295;-81
2021/06/14 02:01:15;;;;;;;21.25;18.92;;;;;;;;;;2103152;28;20229;-81
2021/06/14 02:02:25;;;;;;;20.38;18.35;;;;;;;;;;2104052;28;20563;-82
2021/06/14 02:03:26;;;;;;;22.25;18.50;;;;;;;;;;2104407;28;20312;-81
2021/06/14 02:04:34;;;;;;;23.88;18.08;;;;;;;;;;2104350;28;20312;-82
2021/06/14 02:05:44;;;;;;;20.02;18.10;;;;;;;;;;2096903;28;20271;-81
2021/06/14 02:06:48;;;;;;;20.27;18.25;;;;;;;;;;2094033;28;20217;-81
2021/06/14 02:07:53;;;;;;;20.40;18.25;;;;;;;22.40;100.00;57721.22;2094326;28;20253;-81
2021/06/14 02:08:54;;;;;;;23.67;18.63;;;;;;;;;;2092025;28;20228;-81
2021/06/14 02:09:56;;;;;;;22.58;18.98;;;;;;;;;;2108436;28;20307;-81
2021/06/14 02:10:59;;;;;;;19.67;17.80;;;;;;;9.67;nan;99554.78;2105555;28;21410;-81
2021/06/14 02:12:00;;;;;;;20.02;18.15;;;;;;;;;;2096036;28;20297;-81
2021/06/14 02:13:03;;;;;;;20.35;18.23;;;;;;;;;;2103303;28;20778;-82
2021/06/14 02:14:05;;;;;;;20.85;18.73;;;;;;;;;;2104303;28;20248;-81
2021/06/14 02:15:09;;;;;;;19.17;17.35;;;;;;;;;;2104244;28;20293;-82
2021/06/14 02:16:10;;;;;;;19.67;17.95;;;;;;;;;;2095886;28;20228;-81
2021/06/14 02:17:13;;;;;;;21.10;17.60;;;;;;;;;;2095977;28;20228;-81
2021/06/14 02:18:16;;;;;;;20.23;17.85;;;;;;;;;;2096310;28;20229;-81
2021/06/14 02:19:21;;;;;;;19.35;17.52;;;;;;;9.51;nan;99498.16;2101938;28;20255;-82
2021/06/14 02:20:22;;;;;;;18.95;17.23;;;;;;;;;;2095474;28;20313;-81
2021/06/14 02:21:24;;;;;;;23.17;17.87;;;;;;;;;;2095900;28;20683;-81
2021/06/14 02:22:25;;;;;;;20.52;17.67;;;;;;;;;;2095789;28;20313;-81
2021/06/14 02:23:26;;;;;;;20.77;17.70;;;;;;;9.49;nan;99590.06;2095796;28;20229;-81
2021/06/14 02:24:27;;;;;;;19.58;17.58;;;;;;;;;;2096624;28;23175;-81
2021/06/14 02:25:29;;;;;;;20.23;18.17;;;;;;;;;;2097604;28;20324;-82
2021/06/14 02:26:33;;;;;;;19.08;17.30;;;;;;;;;;2106192;28;20221;-82
2021/06/14 02:27:36;;;;;;;19.17;17.30;;;;;;;;;;2105953;28;20221;-81
2021/06/14 02:28:41;;;;;;;19.73;17.90;;;;;;;22.40;100.00;124727.03;2105426;28;20247;-81
2021/06/14 02:29:46;;;;;;;19.50;17.45;;;;;;;;;;2105941;28;20706;-81
2021/06/14 02:30:49;;;;;;;18.77;16.85;;;;;;;;;;2105978;28;20217;-82
2021/06/14 02:31:51;;;;;;;19.55;17.55;;;;;;;;;;2105875;28;20255;-82
2021/06/14 02:32:55;;;;;;;21.65;18.02;;;;;;;;;;2103485;28;20225;-81
2021/06/14 02:33:56;;;;;;;19.55;17.65;;;;;;;9.36;nan;99543.53;2097421;28;20226;-82
2021/06/14 02:34:58;;;;;;;20.17;18.20;;;;;;;;;;2097360;28;20222;-81
2021/06/14 02:35:59;;;;;;;19.08;17.02;;;;;;;;;;2114314;28;20300;-82
2021/06/14 02:37:02;;;;;;;22.07;18.07;;;;;;;;;;2115498;27;20229;-82
2021/06/14 02:38:06;;;;;;;19.25;17.45;;;;;;;;;;2103065;28;20217;-82
2021/06/14 02:39:09;;;;;;;21.75;18.33;;;;;;;;;;2103621;28;20220;-82
2021/06/14 02:40:12;;;;;;;20.42;18.45;;;;;;;;;;2104218;28;20299;-82
2021/06/14 02:41:14;;;;;;;20.50;18.40;;;;;;;;;;2114069;28;20236;-82
2021/06/14 02:42:17;;;;;;;19.95;17.77;;;;;;;;;;2105782;28;20278;-82
2021/06/14 02:43:20;;;;;;;19.48;17.45;;;;;;;;;;2096867;28;20323;-81
2021/06/14 02:44:22;;;;;;;19.50;17.60;;;;;;;;;;2105813;28;20585;-82
2021/06/14 02:45:29;;;;;;;19.17;17.45;;;;;;;;;;2097831;28;20233;-82
2021/06/14 02:46:35;;;;;;;21.33;18.55;;;;;;;;;;2098030;28;20241;-82
2021/06/14 02:47:36;;;;;;;20.20;17.95;;;;;;;;;;2097599;28;20309;-82
2021/06/14 02:48:39;;;;;;;20.17;18.27;;;;;;;;;;2105817;28;20229;-82
2021/06/14 02:49:41;;;;;;;19.77;17.77;;;;;;;;;;2106136;28;20244;-82
2021/06/14 02:50:44;;;;;;;22.60;18.67;;;;;;;;;;2105793;28;20300;-82
2021/06/14 02:51:46;;;;;;;20.00;17.98;;;;;;;;;;2097675;28;20218;-82
2021/06/14 02:52:53;;;;;;;19.98;18.20;;;;;;;;;;2105788;28;20259;-82
2021/06/14 02:54:03;;;;;;;20.50;18.45;;;;;;;;;;2106191;28;20217;-81
2021/06/14 02:55:07;;;;;;;19.95;17.95;;;;;;;;;;2105238;28;20221;-82
2021/06/14 02:56:11;;;;;;;20.85;18.83;;;;;;;;;;2097091;28;20593;-81
2021/06/14 02:57:13;;;;;;;20.92;18.90;;;;;;;22.40;100.00;164658.44;2105413;28;20285;-82
2021/06/14 02:58:15;;;;;;;22.08;19.00;;;;;;;;;;2090178;28;20657;-82
2021/06/14 02:59:17;;;;;;;23.25;20.00;;;;;;;;;;2105002;28;20225;-82
2021/06/14 03:00:20;;;;;;;21.42;19.17;;;;;;;;;;2103639;28;20692;-82
2021/06/14 03:01:25;;;;;;;26.15;19.60;;;;;;;;;;2095232;28;20253;-81
2021/06/14 03:02:28;;;;;;;22.23;19.73;;;;;;;;;;2090697;28;20234;-81
2021/06/14 03:03:29;;;;;;;21.95;19.35;;;;;;;;;;2089054;28;20222;-82
2021/06/14 03:04:32;;;;;;;24.10;19.17;;;;;;;;;;2104696;28;20575;-82
2021/06/14 03:05:33;;;;;;;25.58;19.60;;;;;;;;;;2113679;28;20232;-82
2021/06/14 03:06:35;;;;;;;20.88;18.83;;;;;;;;;;2097364;28;20250;-81
2021/06/14 03:07:37;;;;;;;22.30;20.00;;;;;;;;;;2105833;28;20270;-81
2021/06/14 03:08:39;;;;;;;24.13;19.60;;;;;;;;;;2105220;28;20225;-81
2021/06/14 03:09:40;;;;;;;21.00;19.05;;;;;;;;;;2105559;28;20303;-81
2021/06/14 03:10:42;;;;;;;21.30;19.17;;;;;;;;;;2105512;28;20225;-81
2021/06/14 03:11:43;;;;;;;21.95;19.52;;;;;;;;;;2097250;28;20230;-81
2021/06/14 03:12:52;;;;;;;21.67;18.70;;;;;;;22.40;100.00;164658.44;2097630;28;20292;-82
2021/06/14 03:13:53;;;;;;;22.48;19.13;;;;;;;;;;2097019;28;20230;-81
2021/06/14 03:14:56;;;;;;;21.15;19.20;;;;;;;;;;2097283;28;20226;-82
2021/06/14 03:15:58;;;;;;;28.25;19.48;;;;;;;-144.19;100.00;91335.28;2097203;28;20255;-82
2021/06/14 03:17:03;;;;;;;21.08;18.95;;;;;;;9.01;nan;99595.88;2097263;28;20582;-82
2021/06/14 03:18:05;;;;;;;20.80;18.85;;;;;;;9.01;nan;99541.84;2097485;28;20218;-82
2021/06/14 03:19:09;;;;;;;20.88;18.73;;;;;;;9.09;nan;99591.06;2097243;28;20248;-82
2021/06/14 03:20:12;;;;;;;20.73;18.63;;;;;;;22.40;100.00;57745.03;2096997;28;20218;-82
2021/06/14 03:21:14;;;;;;;21.00;18.90;;;;;;;;;;2095185;28;20696;-83
2021/06/14 03:22:15;;;;;;;20.80;18.70;;;;;;;;;;2105745;28;20232;-82
2021/06/14 03:23:18;;;;;;;20.63;18.55;;;;;;;;;;2097249;28;20308;-82
2021/06/14 03:24:19;;;;;;;21.63;19.27;;;;;;;-144.19;100.00;91335.28;2095230;28;20237;-82
2021/06/14 03:25:21;;;;;;;21.03;19.00;;;;;;;22.40;100.00;124724.84;2104925;28;20748;-82
2021/06/14 03:26:27;;;;;;;21.05;18.95;;;;;;;;;;2105139;28;20243;-82
2021/06/14 03:27:29;;;;;;;22.88;18.75;;;;;;;;;;2105648;28;20236;-82
2021/06/14 03:28:29;;;;;;;20.33;18.33;;;;;;;;;;2105505;28;20214;-82
2021/06/14 03:29:31;;;;;;;25.80;19.17;;;;;;;;;;2105283;28;20695;-82
2021/06/14 03:30:33;;;;;;;20.83;18.70;;;;;;;;;;2105825;28;20699;-82
2021/06/14 03:31:36;;;;;;;21.02;18.85;;;;;;;;;;2106162;28;20308;-82
2021/06/14 03:32:41;;;;;;;20.80;18.67;;;;;;;22.40;100.00;164658.44;2106184;28;20702;-82
2021/06/14 03:33:46;;;;;;;20.35;18.25;;;;;;;22.40;100.00;164658.44;2103399;28;20225;-82
2021/06/14 03:34:48;;;;;;;20.33;18.50;;;;;;;9.12;nan;99579.88;2104749;28;20228;-82
2021/06/14 03:35:52;;;;;;;21.45;19.10;;;;;;;;;;2105015;28;20218;-82
2021/06/14 03:36:53;;;;;;;20.70;18.55;;;;;;;;;;2094739;28;20218;-81
2021/06/14 03:37:54;;;;;;;20.38;18.45;;;;;;;;;;2105790;28;20225;-81
2021/06/14 03:38:56;;;;;;;21.00;18.80;;;;;;;;;;2105168;28;20248;-82
2021/06/14 03:39:56;;;;;;;22.55;18.92;;;;;;;;;;2105254;28;20229;-82
2021/06/14 03:40:58;;;;;;;24.77;19.33;;;;;;;9.17;nan;99609.13;2105665;28;20225;-82
2021/06/14 03:41:59;;;;;;;22.75;19.75;;;;;;;;;;2105996;28;20293;-82
2021/06/14 03:43:01;;;;;;;23.07;19.17;;;;;;;;;;2105478;28;20229;-82
2021/06/14 03:44:02;;;;;;;22.98;18.90;;;;;;;;;;2105318;28;20557;-82
2021/06/14 03:45:04;;;;;;;21.70;19.00;;;;;;;;;;2105544;28;20757;-82
2021/06/14 03:46:05;;;;;;;20.90;18.70;;;;;;;22.40;100.00;124727.03;2105565;28;20221;-82
2021/06/14 03:47:06;;;;;;;20.87;18.77;;;;;;;;;;2105327;28;20228;-82
2021/06/14 03:48:09;;;;;;;21.10;18.45;;;;;;;;;;2106092;27;20620;-82
2021/06/14 03:49:10;;;;;;;20.92;18.50;;;;;;;;;;2103006;28;20225;-81
2021/06/14 03:50:13;;;;;;;20.38;18.10;;;;;;;;;;2105380;28;20236;-81
2021/06/14 03:51:15;;;;;;;21.63;18.87;;;;;;;;;;2105387;28;20252;-82
2021/06/14 03:52:15;;;;;;;22.48;18.52;;;;;;;;;;2105294;28;20491;-82
2021/06/14 03:53:17;;;;;;;21.03;18.90;;;;;;;9.28;nan;99584.84;2103346;28;20229;-82
2021/06/14 03:54:18;;;;;;;20.65;18.60;;;;;;;;;;2096780;28;20237;-82
2021/06/14 03:55:19;;;;;;;23.27;19.13;;;;;;;;;;2105054;28;20223;-83
2021/06/14 03:56:20;;;;;;;21.35;18.75;;;;;;;;;;2106241;28;20671;-83
2021/06/14 03:57:22;;;;;;;22.57;18.83;;;;;;;;;;2105823;28;20575;-82
2021/06/14 03:58:22;;;;;;;25.98;19.85;;;;;;;;;;2105505;28;20687;-81
2021/06/14 03:59:24;;;;;;;27.47;21.40;;;;;;;;;;2106331;28;20593;-82
2021/06/14 04:00:25;;;;;;;24.33;20.55;;;;;;;9.52;nan;99558.34;2104963;28;20308;-82
2021/06/14 04:01:27;;;;;;;25.00;20.07;;;;;;;;;;2105205;28;20225;-82
2021/06/14 04:02:27;;;;;;;20.85;18.75;;;;;;;;;;2096791;28;20822;-82
2021/06/14 04:03:31;;;;;;;23.73;19.37;;;;;;;;;;2096515;28;20247;-83
2021/06/14 04:04:42;;;;;;;21.92;19.67;;;;;;;;;;2105689;28;20300;-83
2021/06/14 04:05:58;;;;;;;23.88;18.88;;;;;;;;;;2099435;28;20611;-83
2021/06/14 04:07:05;;;;;;;20.67;18.65;;;;;;;;;;2106188;28;20664;-82
2021/06/14 04:08:08;;;;;;;23.93;18.47;;;;;;;;;;2106170;28;20611;-83
2021/06/14 04:09:09;;;;;;;24.42;19.65;;;;;;;;;;2105368;28;20248;-82
2021/06/14 04:10:11;;;;;;;20.43;18.40;;;;;;;;;;2105049;28;20224;-82
2021/06/14 04:11:12;;;;;;;24.33;19.05;;;;;;;;;;2105958;28;20568;-82
2021/06/14 04:12:14;;;;;;;28.33;18.67;;;;;;;;;;2106258;28;20305;-82
2021/06/14 04:13:14;;;;;;;21.67;18.90;;;;;;;;;;2105056;28;20258;-82
2021/06/14 04:14:16;;;;;;;20.90;18.57;;;;;;;9.93;nan;99562.59;2105319;28;20233;-82
2021/06/14 04:15:17;;;;;;;20.67;18.35;;;;;;;;;;2105685;28;20686;-81
2021/06/14 04:16:19;;;;;;;20.40;18.30;;;;;;;;;;2104498;28;20652;-82
2021/06/14 04:17:20;;;;;;;21.17;17.73;;;;;;;9.93;nan;99563.38;2105758;28;20221;-82
2021/06/14 04:18:22;;;;;;;20.93;18.67;;;;;;;;;;2121883;27;20239;-82
2021/06/14 04:19:24;;;;;;;21.00;18.52;;;;;;;;;;2112913;28;20815;-81
2021/06/14 04:20:25;;;;;;;20.63;18.58;;;;;;;;;;2103819;28;20233;-82
2021/06/14 04:21:26;;;;;;;20.90;18.55;;;;;;;;;;2104967;28;20233;-82
2021/06/14 04:22:27;;;;;;;20.33;18.20;;;;;;;;;;2105688;28;20245;-82
2021/06/14 04:23:30;;;;;;;25.70;18.13;;;;;;;10.12;nan;99556.28;2104944;28;20379;-82
2021/06/14 04:24:31;;;;;;;22.58;18.73;;;;;;;;;;2104930;28;20672;-82
2021/06/14 04:25:32;;;;;;;21.13;18.85;;;;;;;;;;2097164;28;20225;-82
2021/06/14 04:26:34;;;;;;;20.93;18.93;;;;;;;;;;2104872;28;20225;-82
2021/06/14 04:27:34;;;;;;;22.27;19.00;;;;;;;;;;2105231;28;20278;-82
2021/06/14 04:28:36;;;;;;;20.87;18.70;;;;;;;;;;2105855;28;20275;-82
2021/06/14 04:29:36;;;;;;;20.42;18.38;;;;;;;;;;2104950;28;20222;-82
2021/06/14 04:30:38;;;;;;;19.93;17.87;;;;;;;;;;2105544;28;20217;-82
2021/06/14 04:31:38;;;;;;;21.50;18.35;;;;;;;;;;2096133;28;20236;-82
2021/06/14 04:32:40;;;;;;;20.40;18.30;;;;;;;;;;2097227;28;20218;-82
2021/06/14 04:33:41;;;;;;;20.25;18.25;;;;;;;;;;2089569;28;20665;-82
2021/06/14 04:34:44;;;;;;;20.80;18.60;;;;;;;;;;2092815;28;20640;-81
2021/06/14 04:35:44;;;;;;;22.95;18.65;;;;;;;;;;2105511;28;20236;-82
2021/06/14 04:36:46;;;;;;;21.03;19.03;;;;;;;;;;2096579;28;20309;-81
2021/06/14 04:37:46;;;;;;;21.20;18.98;;;;;;;;;;2105449;28;20672;-82
2021/06/14 04:38:49;;;;;;;19.87;17.97;;;;;;;10.56;nan;99598.03;2105659;28;20577;-82
2021/06/14 04:39:49;;;;;;;20.38;18.13;;;;;;;;;;2105524;28;20213;-81
2021/06/14 04:40:51;;;;;;;19.63;17.60;;;;;;;;;;2106796;28;20277;-82
2021/06/14 04:41:51;;;;;;;19.95;18.08;;;;;;;;;;2105549;28;20225;-82
2021/06/14 04:42:53;;;;;;;21.33;18.50;;;;;;;10.72;nan;99591.47;2104591;28;20776;-81
2021/06/14 04:43:54;;;;;;;19.65;17.73;;;;;;;;;;2104750;28;20652;-81
2021/06/14 04:44:55;;;;;;;20.00;18.20;;;;;;;;;;2104702;28;20227;-81
2021/06/14 04:45:56;;;;;;;19.75;17.83;;;;;;;;;;2105200;28;20232;-81
2021/06/14 04:46:57;;;;;;;20.10;18.23;;;;;;;;;;2104279;28;20251;-81
2021/06/14 04:47:58;;;;;;;18.95;17.45;;;;;;;10.89;nan;99591.03;2104810;28;20224;-82
2021/06/14 04:49:00;;;;;;;20.03;18.13;;;;;;;10.91;nan;99561.38;2105234;28;20691;-82
2021/06/14 04:50:02;;;;;;;19.90;17.90;;;;;;;;;;2105459;28;20221;-82
2021/06/14 04:51:04;;;;;;;19.52;17.63;;;;;;;;;;2106173;28;20228;-82
2021/06/14 04:52:05;;;;;;;19.40;17.27;;;;;;;;;;2105375;28;20787;-82
2021/06/14 04:53:06;;;;;;;20.77;18.55;;;;;;;;;;2105528;28;20229;-82
2021/06/14 04:54:07;;;;;;;20.60;18.52;;;;;;;;;;2103745;28;20676;-82
2021/06/14 04:55:09;;;;;;;20.80;18.60;;;;;;;;;;2105409;28;20651;-82
2021/06/14 04:56:10;;;;;;;21.15;18.35;;;;;;;;;;2105047;28;20692;-82
2021/06/14 04:57:11;;;;;;;20.80;18.70;;;;;;;;;;2096906;28;20552;-82
2021/06/14 04:58:12;;;;;;;26.02;17.88;;;;;;;;;;2106008;28;20301;-82
2021/06/14 04:59:14;;;;;;;19.57;17.70;;;;;;;;;;2114007;28;20254;-82
2021/06/14 05:00:16;;;;;;;19.20;17.30;;;;;;;;;;2102335;28;20225;-81
2021/06/14 05:01:18;;;;;;;19.15;17.20;;;;;;;11.17;nan;99548.50;2104616;28;20232;-82
2021/06/14 05:02:18;;;;;;;19.90;17.85;;;;;;;;;;2096572;28;20301;-82
2021/06/14 05:03:20;;;;;;;22.57;17.53;;;;;;;;;;2104516;28;20671;-83
2021/06/14 05:04:20;;;;;;;19.75;17.77;;;;;;;;;;2104971;28;20701;-81
2021/06/14 05:05:23;;;;;;;18.67;17.07;;;;;;;;;;2104576;28;20596;-82
2021/06/14 05:06:24;;;;;;;19.00;17.20;;;;;;;;;;2102406;28;20649;-81
2021/06/14 05:07:26;;;;;;;19.70;17.80;;;;;;;;;;2092912;28;20237;-82
2021/06/14 05:08:26;;;;;;;19.60;17.73;;;;;;;;;;2096192;28;20309;-82
2021/06/14 05:09:28;;;;;;;20.63;18.47;;;;;;;;;;2105027;28;20237;-81
2021/06/14 05:10:29;;;;;;;19.67;17.75;;;;;;;11.41;nan;99591.19;2105300;28;20217;-81
2021/06/14 05:11:30;;;;;;;19.83;17.80;;;;;;;;;;2105515;28;20241;-81
2021/06/14 05:12:31;;;;;;;19.77;17.70;;;;;;;;;;2104973;28;20637;-81
2021/06/14 05:13:33;;;;;;;21.67;18.20;;;;;;;11.42;nan;99528.66;2104577;28;20221;-81
2021/06/14 05:14:34;;;;;;;20.15;18.25;;;;;;;;;;2104515;28;20217;-81
2021/06/14 05:15:35;;;;;;;20.23;18.27;;;;;;;;;;2090449;28;20222;-81
2021/06/14 05:16:36;;;;;;;20.75;18.50;;;;;;;;;;2104622;28;20228;-81
2021/06/14 05:17:37;;;;;;;19.13;17.60;;;;;;;;;;2104606;28;20232;-81
2021/06/14 05:18:38;;;;;;;19.45;17.83;;;;;;;;;;2104118;28;20229;-81
2021/06/14 05:19:40;;;;;;;20.20;18.17;;;;;;;11.76;nan;99614.72;2104506;28;20225;-81
2021/06/14 05:20:42;;;;;;;19.25;17.50;;;;;;;;;;2092162;28;20218;-81
2021/06/14 05:21:43;;;;;;;19.30;17.55;;;;;;;;;;2108858;28;20232;-81
2021/06/14 05:22:44;;;;;;;19.55;17.85;;;;;;;;;;2114370;28;20307;-81
2021/06/14 05:23:46;;;;;;;19.87;18.00;;;;;;;;;;2101386;28;20817;-82
2021/06/14 05:24:46;;;;;;;20.15;18.13;;;;;;;;;;2104577;28;20753;-81
2021/06/14 05:25:48;;;;;;;19.40;17.80;;;;;;;;;;2104496;28;20673;-82
2021/06/14 05:26:48;;;;;;;20.35;18.52;;;;;;;;;;2104580;28;20250;-81
2021/06/14 05:27:50;;;;;;;19.33;17.60;;;;;;;;;;2105531;28;20270;-82
2021/06/14 05:28:51;;;;;;;20.70;18.65;;;;;;;;;;2104504;28;20221;-81
2021/06/14 05:29:52;;;;;;;18.90;17.20;;;;;;;11.95;nan;99574.63;2096209;28;20224;-81
2021/06/14 05:30:53;;;;;;;19.60;17.90;;;;;;;;;;2097871;28;20225;-81
2021/06/14 05:31:55;;;;;;;20.20;18.20;;;;;;;12.05;nan;99584.38;2096136;28;20226;-81
2021/06/14 05:32:55;;;;;;;19.35;17.30;;;;;;;;;;2103711;28;20699;-81
2021/06/14 05:33:57;;;;;;;18.70;17.03;;;;;;;;;;2105269;28;20225;-82
2021/06/14 05:34:58;;;;;;;17.98;16.60;;;;;;;;;;2104152;28;20225;-81
2021/06/14 05:36:01;;;;;;;18.90;17.10;;;;;;;;;;2096270;28;20274;-81
2021/06/14 05:37:02;;;;;;;19.35;17.42;;;;;;;;;;2104442;28;20644;-81
2021/06/14 05:38:03;;;;;;;18.50;16.90;;;;;;;;;;2104620;28;20235;-81
2021/06/14 05:39:05;;;;;;;19.00;17.30;;;;;;;12.33;nan;99639.53;2104499;28;20561;-81
2021/06/14 05:40:07;;;;;;;20.15;17.73;;;;;;;;;;2102254;28;20232;-81
2021/06/14 05:41:08;;;;;;;18.63;16.70;;;;;;;;;;2104405;28;20275;-81
2021/06/14 05:42:10;;;;;;;19.23;17.30;;;;;;;;;;2104088;28;20659;-81
2021/06/14 05:43:11;;;;;;;19.60;17.67;;;;;;;;;;2095976;28;20259;-81